Airfield :
LOGIN :

Register | Disclaimer

   EN    FR    IT 

 










Legend :    VFR   Marginal VFR   IFR   Intensive IFR   Very Intensive IFR
Visi :
Ceiling :
>= 8 km
>= 3000ft
5 to 8 km
1000 to 3000 ft
1500m to 5 km
500 to 1000 ft
800 to 1500m
200 to 500 ft
< 800m
< 200 ft
Symbols :   Thunderstorms  Fog  Heavy snow  Heavy precipitations  Wind > 20 kt
SIGMETs :     Misc.  Thunderstorms  Icing  Turbulence  Mountain Waves  Volcanic Ashes






- Airport Elevation : 197 ft
- IATA code : XOG


LFMO - Orange

CURRENT METAR :
  • 290730Z AUTO 35023KT 8000 NSC 18/04 Q1008 BECMG 34015G30KT

EXPIRED METARs :
  • 290700Z AUTO 35026KT 7000 NSC 17/04 Q1007 BECMG 34015G30KT
  • 290630Z AUTO 35026G41KT 7000 NSC 17/04 Q1007 BECMG 34015G30KT
  • 290600Z AUTO 35020G30KT 7000 NSC 16/04 Q1008 NOSIG
  • 290530Z AUTO 35020G32KT 7000 NSC 16/03 Q1008 NOSIG
  • 290500Z AUTO 35022KT 7000 NSC 16/03 Q1008 BECMG 34015G30KT

TAF TAF LFMO
Valid from the 29 at 03:00 until the 30 at 03:00 UTC


290200Z 2903/3003 34015G30KT CAVOK TX27/2913Z TN15/2903Z



MET'MAP, your aeronautical weather chart ! - Copyright ORBIFLY December 2007 - Disclaimer

ORBIFLY MET'MAP TEAM :

Programming & Development : Alexandra Zaïnal
Original concept : Baudouin d'Aumeries
Technical & hardware support : Manuel Goepfert
Assistance : Marc-Olivier Méhu

Contact : metmap@orbifly.com




SOURCES & CREDITS :

   NOAA